sensor_id;sensor_type;location;lat;lon;timestamp;pressure;altitude;pressure_sealevel;temperature
45034;BMP280;30771;47.988;-4.186;2023-10-19T00:01:50;94638.38;;;17.68
45034;BMP280;30771;47.988;-4.186;2023-10-19T00:04:17;94591.44;;;17.44
45034;BMP280;30771;47.988;-4.186;2023-10-19T00:06:44;94616.00;;;17.62
45034;BMP280;30771;47.988;-4.186;2023-10-19T00:09:10;94580.47;;;17.42
45034;BMP280;30771;47.988;-4.186;2023-10-19T00:11:37;94615.22;;;17.65
45034;BMP280;30771;47.988;-4.186;2023-10-19T00:14:04;94617.09;;;17.68
45034;BMP280;30771;47.988;-4.186;2023-10-19T00:16:31;94565.66;;;17.45
45034;BMP280;30771;47.988;-4.186;2023-10-19T00:18:58;94576.22;;;17.55
45034;BMP280;30771;47.988;-4.186;2023-10-19T00:21:25;94584.19;;;17.55
45034;BMP280;30771;47.988;-4.186;2023-10-19T00:23:53;94594.34;;;17.64
45034;BMP280;30771;47.988;-4.186;2023-10-19T00:26:20;94569.44;;;17.47
45034;BMP280;30771;47.988;-4.186;2023-10-19T00:28:48;94618.59;;;17.73
45034;BMP280;30771;47.988;-4.186;2023-10-19T00:31:15;94608.34;;;17.75
45034;BMP280;30771;47.988;-4.186;2023-10-19T00:33:42;94609.88;;;17.72
45034;BMP280;30771;47.988;-4.186;2023-10-19T00:36:09;94604.13;;;17.77
45034;BMP280;30771;47.988;-4.186;2023-10-19T00:38:37;94573.09;;;17.64
45034;BMP280;30771;47.988;-4.186;2023-10-19T00:41:06;94557.25;;;17.50
45034;BMP280;30771;47.988;-4.186;2023-10-19T00:43:33;94566.31;;;17.59
45034;BMP280;30771;47.988;-4.186;2023-10-19T00:46:00;94604.13;;;17.81
45034;BMP280;30771;47.988;-4.186;2023-10-19T00:48:27;94547.78;;;17.52
45034;BMP280;30771;47.988;-4.186;2023-10-19T00:50:55;94569.59;;;17.77
45034;BMP280;30771;47.988;-4.186;2023-10-19T00:53:22;94526.47;;;17.56
45034;BMP280;30771;47.988;-4.186;2023-10-19T00:55:49;94533.66;;;17.59
45034;BMP280;30771;47.988;-4.186;2023-10-19T00:58:16;94588.16;;;17.81
45034;BMP280;30771;47.988;-4.186;2023-10-19T01:00:44;94571.78;;;17.82
45034;BMP280;30771;47.988;-4.186;2023-10-19T01:03:11;94533.22;;;17.64
45034;BMP280;30771;47.988;-4.186;2023-10-19T01:05:38;94536.66;;;17.64
45034;BMP280;30771;47.988;-4.186;2023-10-19T01:08:05;94532.13;;;17.61
45034;BMP280;30771;47.988;-4.186;2023-10-19T01:10:32;94519.94;;;17.64
45034;BMP280;30771;47.988;-4.186;2023-10-19T01:12:59;94539.25;;;17.75
45034;BMP280;30771;47.988;-4.186;2023-10-19T01:15:28;94522.53;;;17.74
45034;BMP280;30771;47.988;-4.186;2023-10-19T01:18:00;94520.63;;;17.75
45034;BMP280;30771;47.988;-4.186;2023-10-19T01:20:29;94537.97;;;17.86
45034;BMP280;30771;47.988;-4.186;2023-10-19T01:23:07;94537.25;;;17.86
45034;BMP280;30771;47.988;-4.186;2023-10-19T01:25:45;94538.41;;;17.81
45034;BMP280;30771;47.988;-4.186;2023-10-19T01:28:12;94536.50;;;17.82
45034;BMP280;30771;47.988;-4.186;2023-10-19T01:30:39;94542.19;;;17.84
45034;BMP280;30771;47.988;-4.186;2023-10-19T01:33:05;94538.38;;;17.85
45034;BMP280;30771;47.988;-4.186;2023-10-19T01:35:32;94497.16;;;17.66
45034;BMP280;30771;47.988;-4.186;2023-10-19T01:37:59;94488.41;;;17.66
45034;BMP280;30771;47.988;-4.186;2023-10-19T01:40:26;94509.22;;;17.74
45034;BMP280;30771;47.988;-4.186;2023-10-19T01:42:53;94508.88;;;17.72
45034;BMP280;30771;47.988;-4.186;2023-10-19T01:45:20;94483.09;;;17.66
45034;BMP280;30771;47.988;-4.186;2023-10-19T01:47:46;94518.63;;;17.82
45034;BMP280;30771;47.988;-4.186;2023-10-19T01:50:13;94522.03;;;17.86
45034;BMP280;30771;47.988;-4.186;2023-10-19T01:52:40;94504.28;;;17.76
45034;BMP280;30771;47.988;-4.186;2023-10-19T01:55:08;94495.88;;;17.78
45034;BMP280;30771;47.988;-4.186;2023-10-19T01:57:35;94481.56;;;17.72
45034;BMP280;30771;47.988;-4.186;2023-10-19T02:00:01;94507.97;;;17.89
45034;BMP280;30771;47.988;-4.186;2023-10-19T02:02:28;94475.47;;;17.71
45034;BMP280;30771;47.988;-4.186;2023-10-19T02:04:55;94496.94;;;17.87
45034;BMP280;30771;47.988;-4.186;2023-10-19T02:07:22;94458.44;;;17.65
45034;BMP280;30771;47.988;-4.186;2023-10-19T02:09:49;94485.16;;;17.88
45034;BMP280;30771;47.988;-4.186;2023-10-19T02:12:16;94473.81;;;17.84
45034;BMP280;30771;47.988;-4.186;2023-10-19T02:14:43;94477.69;;;17.80
45034;BMP280;30771;47.988;-4.186;2023-10-19T02:17:10;94473.84;;;17.81
45034;BMP280;30771;47.988;-4.186;2023-10-19T02:19:36;94487.03;;;17.91
45034;BMP280;30771;47.988;-4.186;2023-10-19T02:22:04;94479.06;;;17.91
45034;BMP280;30771;47.988;-4.186;2023-10-19T02:24:31;94448.88;;;17.75
45034;BMP280;30771;47.988;-4.186;2023-10-19T02:26:58;94427.63;;;17.71
45034;BMP280;30771;47.988;-4.186;2023-10-19T02:29:25;94464.69;;;17.85
45034;BMP280;30771;47.988;-4.186;2023-10-19T02:31:52;94423.88;;;17.65
45034;BMP280;30771;47.988;-4.186;2023-10-19T02:34:19;94423.00;;;17.75
45034;BMP280;30771;47.988;-4.186;2023-10-19T02:36:46;94405.28;;;17.65
45034;BMP280;30771;47.988;-4.186;2023-10-19T02:39:14;94429.00;;;17.83
45034;BMP280;30771;47.988;-4.186;2023-10-19T02:41:43;94399.84;;;17.76
45034;BMP280;30771;47.988;-4.186;2023-10-19T02:44:18;94413.88;;;17.80
45034;BMP280;30771;47.988;-4.186;2023-10-19T02:46:50;94397.53;;;17.78
45034;BMP280;30771;47.988;-4.186;2023-10-19T02:49:18;94427.00;;;17.94
45034;BMP280;30771;47.988;-4.186;2023-10-19T02:51:47;94415.59;;;17.93
45034;BMP280;30771;47.988;-4.186;2023-10-19T02:54:19;94411.16;;;17.83
45034;BMP280;30771;47.988;-4.186;2023-10-19T02:56:52;94401.72;;;17.79
45034;BMP280;30771;47.988;-4.186;2023-10-19T02:59:20;94405.13;;;17.79
45034;BMP280;30771;47.988;-4.186;2023-10-19T03:01:51;94439.22;;;17.88
45034;BMP280;30771;47.988;-4.186;2023-10-19T03:04:18;94387.81;;;17.64
45034;BMP280;30771;47.988;-4.186;2023-10-19T03:06:45;94398.06;;;17.66
45034;BMP280;30771;47.988;-4.186;2023-10-19T03:09:12;94425.59;;;17.82
45034;BMP280;30771;47.988;-4.186;2023-10-19T03:11:40;94405.56;;;17.74
45034;BMP280;30771;47.988;-4.186;2023-10-19T03:14:08;94413.81;;;17.83
45034;BMP280;30771;47.988;-4.186;2023-10-19T03:16:36;94416.47;;;17.83
45034;BMP280;30771;47.988;-4.186;2023-10-19T03:19:03;94413.13;;;17.79
45034;BMP280;30771;47.988;-4.186;2023-10-19T03:21:30;94410.81;;;17.78
45034;BMP280;30771;47.988;-4.186;2023-10-19T03:23:57;94393.47;;;17.70
45034;BMP280;30771;47.988;-4.186;2023-10-19T03:26:24;94390.41;;;17.71
45034;BMP280;30771;47.988;-4.186;2023-10-19T03:28:55;94359.06;;;17.56
45034;BMP280;30771;47.988;-4.186;2023-10-19T03:31:24;94358.25;;;17.59
45034;BMP280;30771;47.988;-4.186;2023-10-19T03:33:52;94356.78;;;17.58
45034;BMP280;30771;47.988;-4.186;2023-10-19T03:36:23;94346.50;;;17.60
45034;BMP280;30771;47.988;-4.186;2023-10-19T03:39:17;94387.63;;;17.82
45034;BMP280;30771;47.988;-4.186;2023-10-19T03:41:44;94354.72;;;17.72
45034;BMP280;30771;47.988;-4.186;2023-10-19T03:44:11;94330.81;;;17.69
45034;BMP280;30771;47.988;-4.186;2023-10-19T03:46:39;94359.88;;;17.83
45034;BMP280;30771;47.988;-4.186;2023-10-19T03:49:08;94340.69;;;17.72
45034;BMP280;30771;47.988;-4.186;2023-10-19T03:51:35;94305.19;;;17.55
45034;BMP280;30771;47.988;-4.186;2023-10-19T03:54:02;94323.97;;;17.68
45034;BMP280;30771;47.988;-4.186;2023-10-19T03:56:29;94326.31;;;17.66
45034;BMP280;30771;47.988;-4.186;2023-10-19T03:58:56;94341.38;;;17.76
45034;BMP280;30771;47.988;-4.186;2023-10-19T04:01:23;94322.25;;;17.54
45034;BMP280;30771;47.988;-4.186;2023-10-19T04:03:50;94318.84;;;17.54
45034;BMP280;30771;47.988;-4.186;2023-10-19T04:06:17;94312.00;;;17.56
45034;BMP280;30771;47.988;-4.186;2023-10-19T04:08:46;94349.00;;;17.74
45034;BMP280;30771;47.988;-4.186;2023-10-19T04:11:14;94291.56;;;17.50
45034;BMP280;30771;47.988;-4.186;2023-10-19T04:13:42;94341.38;;;17.76
45034;BMP280;30771;47.988;-4.186;2023-10-19T04:16:09;94289.59;;;17.54
45034;BMP280;30771;47.988;-4.186;2023-10-19T04:18:39;94282.41;;;17.54
45034;BMP280;30771;47.988;-4.186;2023-10-19T04:21:07;94317.34;;;17.83
45034;BMP280;30771;47.988;-4.186;2023-10-19T04:23:36;94309.00;;;17.84
45034;BMP280;30771;47.988;-4.186;2023-10-19T04:26:08;94306.34;;;17.84
45034;BMP280;30771;47.988;-4.186;2023-10-19T04:28:38;94293.13;;;17.77
45034;BMP280;30771;47.988;-4.186;2023-10-19T04:31:27;94281.03;;;17.73
45034;BMP280;30771;47.988;-4.186;2023-10-19T04:34:23;94271.59;;;17.72
45034;BMP280;30771;47.988;-4.186;2023-10-19T04:36:57;94239.84;;;17.58
45034;BMP280;30771;47.988;-4.186;2023-10-19T04:39:24;94263.53;;;17.75
45034;BMP280;30771;47.988;-4.186;2023-10-19T04:41:51;94241.25;;;17.66
45034;BMP280;30771;47.988;-4.186;2023-10-19T04:44:24;94261.75;;;17.65
45034;BMP280;30771;47.988;-4.186;2023-10-19T04:47:04;94252.16;;;17.75
45034;BMP280;30771;47.988;-4.186;2023-10-19T04:49:36;94220.09;;;17.59
45034;BMP280;30771;47.988;-4.186;2023-10-19T05:08:23;94233.81;;;17.84
45034;BMP280;30771;47.988;-4.186;2023-10-19T05:17:33;94237.81;;;17.69
45034;BMP280;30771;47.988;-4.186;2023-10-19T05:29:04;94244.09;;;17.82
45034;BMP280;30771;47.988;-4.186;2023-10-19T05:31:46;94243.69;;;17.83
45034;BMP280;30771;47.988;-4.186;2023-10-19T05:34:39;94219.97;;;17.69
45034;BMP280;30771;47.988;-4.186;2023-10-19T05:37:18;94228.53;;;17.80
45034;BMP280;30771;47.988;-4.186;2023-10-19T05:40:41;94229.59;;;17.86
45034;BMP280;30771;47.988;-4.186;2023-10-19T05:43:45;94208.94;;;17.71
45034;BMP280;30771;47.988;-4.186;2023-10-19T05:46:59;94182.75;;;17.69
45034;BMP280;30771;47.988;-4.186;2023-10-19T05:49:39;94157.06;;;17.59
45034;BMP280;30771;47.988;-4.186;2023-10-19T05:53:13;94188.44;;;17.71
45034;BMP280;30771;47.988;-4.186;2023-10-19T05:58:35;94206.81;;;17.85
45034;BMP280;30771;47.988;-4.186;2023-10-19T06:01:33;94168.84;;;17.58
45034;BMP280;30771;47.988;-4.186;2023-10-19T06:04:11;94202.03;;;17.73
45034;BMP280;30771;47.988;-4.186;2023-10-19T06:06:41;94169.28;;;17.57
45034;BMP280;30771;47.988;-4.186;2023-10-19T06:09:08;94174.28;;;17.51
45034;BMP280;30771;47.988;-4.186;2023-10-19T06:11:35;94201.63;;;17.48
45034;BMP280;30771;47.988;-4.186;2023-10-19T06:14:03;94198.44;;;17.30
45034;BMP280;30771;47.988;-4.186;2023-10-19T06:16:31;94232.09;;;17.40
45034;BMP280;30771;47.988;-4.186;2023-10-19T06:18:57;94224.25;;;17.30
45034;BMP280;30771;47.988;-4.186;2023-10-19T06:21:25;94218.28;;;17.22
45034;BMP280;30771;47.988;-4.186;2023-10-19T06:23:51;94217.50;;;17.22
45034;BMP280;30771;47.988;-4.186;2023-10-19T06:26:19;94226.75;;;17.10
45034;BMP280;30771;47.988;-4.186;2023-10-19T06:28:50;94227.50;;;17.11
45034;BMP280;30771;47.988;-4.186;2023-10-19T06:31:17;94249.28;;;16.95
45034;BMP280;30771;47.988;-4.186;2023-10-19T06:33:44;94240.97;;;16.93
45034;BMP280;30771;47.988;-4.186;2023-10-19T06:36:43;94273.44;;;17.04
45034;BMP280;30771;47.988;-4.186;2023-10-19T06:39:19;94249.00;;;16.86
45034;BMP280;30771;47.988;-4.186;2023-10-19T06:45:07;94274.25;;;17.01
45034;BMP280;30771;47.988;-4.186;2023-10-19T06:47:44;94257.72;;;16.86
45034;BMP280;30771;47.988;-4.186;2023-10-19T06:50:24;94249.44;;;16.77
45034;BMP280;30771;47.988;-4.186;2023-10-19T06:53:04;94272.16;;;16.82
45034;BMP280;30771;47.988;-4.186;2023-10-19T06:56:01;94248.75;;;16.70
45034;BMP280;30771;47.988;-4.186;2023-10-19T06:58:44;94286.84;;;16.90
45034;BMP280;30771;47.988;-4.186;2023-10-19T07:01:14;94276.75;;;16.78
45034;BMP280;30771;47.988;-4.186;2023-10-19T07:03:48;94265.81;;;16.69
45034;BMP280;30771;47.988;-4.186;2023-10-19T07:06:15;94285.06;;;16.83
45034;BMP280;30771;47.988;-4.186;2023-10-19T07:08:51;94270.69;;;16.77
45034;BMP280;30771;47.988;-4.186;2023-10-19T07:11:20;94278.56;;;16.84
45034;BMP280;30771;47.988;-4.186;2023-10-19T07:13:48;94252.16;;;16.70
45034;BMP280;30771;47.988;-4.186;2023-10-19T07:16:24;94273.66;;;16.83
45034;BMP280;30771;47.988;-4.186;2023-10-19T07:23:13;94235.03;;;16.78
45034;BMP280;30771;47.988;-4.186;2023-10-19T07:25:47;94266.22;;;17.08
45034;BMP280;30771;47.988;-4.186;2023-10-19T07:28:23;94246.25;;;16.97
45034;BMP280;30771;47.988;-4.186;2023-10-19T07:30:55;94221.25;;;16.90
45034;BMP280;30771;47.988;-4.186;2023-10-19T07:34:04;94224.28;;;16.92
45034;BMP280;30771;47.988;-4.186;2023-10-19T07:43:44;94243.59;;;16.97
45034;BMP280;30771;47.988;-4.186;2023-10-19T07:50:25;94227.28;;;16.98
45034;BMP280;30771;47.988;-4.186;2023-10-19T08:03:36;93651.03;;;17.28
45034;BMP280;30771;47.988;-4.186;2023-10-19T08:06:08;93743.97;;;17.28
45034;BMP280;30771;47.988;-4.186;2023-10-19T08:08:39;93768.03;;;17.21
45034;BMP280;30771;47.988;-4.186;2023-10-19T08:11:08;93826.66;;;17.50
45034;BMP280;30771;47.988;-4.186;2023-10-19T08:13:38;93837.16;;;17.37
45034;BMP280;30771;47.988;-4.186;2023-10-19T08:16:12;93884.53;;;17.58
45034;BMP280;30771;47.988;-4.186;2023-10-19T08:18:39;93854.63;;;17.35
45034;BMP280;30771;47.988;-4.186;2023-10-19T08:21:22;93906.50;;;17.62
45034;BMP280;30771;47.988;-4.186;2023-10-19T08:24:14;93894.66;;;17.44
45034;BMP280;30771;47.988;-4.186;2023-10-19T08:26:44;93907.84;;;17.51
45034;BMP280;30771;47.988;-4.186;2023-10-19T08:29:46;93919.47;;;17.60
45034;BMP280;30771;47.988;-4.186;2023-10-19T08:32:31;93956.47;;;17.71
45034;BMP280;30771;47.988;-4.186;2023-10-19T08:35:23;93932.00;;;17.60
45034;BMP280;30771;47.988;-4.186;2023-10-19T08:38:13;93974.53;;;17.79
45034;BMP280;30771;47.988;-4.186;2023-10-19T08:40:45;93988.66;;;17.76
45034;BMP280;30771;47.988;-4.186;2023-10-19T08:43:52;93998.09;;;17.77
45034;BMP280;30771;47.988;-4.186;2023-10-19T08:47:07;93986.56;;;17.64
45034;BMP280;30771;47.988;-4.186;2023-10-19T08:49:49;93996.09;;;17.62
45034;BMP280;30771;47.988;-4.186;2023-10-19T08:52:37;93994.69;;;17.54
45034;BMP280;30771;47.988;-4.186;2023-10-19T08:55:30;93984.00;;;17.34
45034;BMP280;30771;47.988;-4.186;2023-10-19T08:58:46;93981.81;;;17.29
45034;BMP280;30771;47.988;-4.186;2023-10-19T09:01:39;93995.78;;;17.33
45034;BMP280;30771;47.988;-4.186;2023-10-19T09:04:32;94002.28;;;17.32
45034;BMP280;30771;47.988;-4.186;2023-10-19T09:07:41;94003.75;;;17.33
45034;BMP280;30771;47.988;-4.186;2023-10-19T09:10:28;94041.31;;;17.58
45034;BMP280;30771;47.988;-4.186;2023-10-19T09:13:10;94057.25;;;17.58
45034;BMP280;30771;47.988;-4.186;2023-10-19T09:16:29;94005.25;;;17.34
45034;BMP280;30771;47.988;-4.186;2023-10-19T09:19:00;94065.94;;;17.62
45034;BMP280;30771;47.988;-4.186;2023-10-19T09:21:41;94059.44;;;17.63
45034;BMP280;30771;47.988;-4.186;2023-10-19T09:48:35;93772.75;;;18.04
45034;BMP280;30771;47.988;-4.186;2023-10-19T09:55:23;93827.47;;;18.21
45034;BMP280;30771;47.988;-4.186;2023-10-19T09:58:40;93810.66;;;18.08
45034;BMP280;30771;47.988;-4.186;2023-10-19T10:03:05;93857.28;;;18.29
45034;BMP280;30771;47.988;-4.186;2023-10-19T10:05:59;93630.28;;;18.23
45034;BMP280;30771;47.988;-4.186;2023-10-19T10:08:39;93706.19;;;18.24
45034;BMP280;30771;47.988;-4.186;2023-10-19T10:15:50;93800.28;;;18.30
45034;BMP280;30771;47.988;-4.186;2023-10-19T10:18:48;93876.28;;;18.47
45034;BMP280;30771;47.988;-4.186;2023-10-19T10:21:22;93884.72;;;18.46
45034;BMP280;30771;47.988;-4.186;2023-10-19T10:24:24;93861.97;;;18.25
45034;BMP280;30771;47.988;-4.186;2023-10-19T11:35:13;93774.03;;;18.64
45034;BMP280;30771;47.988;-4.186;2023-10-19T11:38:36;93832.50;;;18.68
45034;BMP280;30771;47.988;-4.186;2023-10-19T12:05:25;93745.00;;;18.54
45034;BMP280;30771;47.988;-4.186;2023-10-19T12:08:38;93786.38;;;18.71
45034;BMP280;30771;47.988;-4.186;2023-10-19T12:11:24;93762.81;;;18.41
45034;BMP280;30771;47.988;-4.186;2023-10-19T12:17:36;93838.47;;;18.72
45034;BMP280;30771;47.988;-4.186;2023-10-19T12:20:03;93861.03;;;18.67
45034;BMP280;30771;47.988;-4.186;2023-10-19T12:22:30;93837.97;;;18.45
45034;BMP280;30771;47.988;-4.186;2023-10-19T12:24:57;93840.22;;;18.46
45034;BMP280;30771;47.988;-4.186;2023-10-19T12:27:24;93846.38;;;18.43
45034;BMP280;30771;47.988;-4.186;2023-10-19T12:29:57;93894.88;;;18.67
45034;BMP280;30771;47.988;-4.186;2023-10-19T12:36:08;93895.72;;;18.80
45034;BMP280;30771;47.988;-4.186;2023-10-19T12:38:44;93902.63;;;18.77
45034;BMP280;30771;47.988;-4.186;2023-10-19T12:47:53;93828.66;;;18.69
45034;BMP280;30771;47.988;-4.186;2023-10-19T13:34:09;93666.44;;;19.19
45034;BMP280;30771;47.988;-4.186;2023-10-19T13:40:13;93644.78;;;18.92
45034;BMP280;30771;47.988;-4.186;2023-10-19T13:43:07;93689.06;;;19.27
45034;BMP280;30771;47.988;-4.186;2023-10-19T13:45:39;93669.31;;;19.12
45034;BMP280;30771;47.988;-4.186;2023-10-19T13:48:18;93673.72;;;19.18
45034;BMP280;30771;47.988;-4.186;2023-10-19T13:50:54;93661.31;;;18.99
45034;BMP280;30771;47.988;-4.186;2023-10-19T13:53:27;93701.16;;;19.15
45034;BMP280;30771;47.988;-4.186;2023-10-19T13:56:10;93690.34;;;18.94
45034;BMP280;30771;47.988;-4.186;2023-10-19T13:58:40;93721.06;;;19.11
45034;BMP280;30771;47.988;-4.186;2023-10-19T14:01:40;93749.69;;;19.23
45034;BMP280;30771;47.988;-4.186;2023-10-19T14:04:10;93760.00;;;19.21
45034;BMP280;30771;47.988;-4.186;2023-10-19T14:06:37;93706.13;;;19.01
45034;BMP280;30771;47.988;-4.186;2023-10-19T14:09:07;93716.66;;;19.33
45034;BMP280;30771;47.988;-4.186;2023-10-19T14:11:41;93727.25;;;19.49
45034;BMP280;30771;47.988;-4.186;2023-10-19T14:14:12;93701.53;;;19.30
45034;BMP280;30771;47.988;-4.186;2023-10-19T14:16:40;93753.34;;;19.54
45034;BMP280;30771;47.988;-4.186;2023-10-19T14:19:13;93777.16;;;19.48
45034;BMP280;30771;47.988;-4.186;2023-10-19T14:21:52;93767.19;;;19.36
45034;BMP280;30771;47.988;-4.186;2023-10-19T14:24:23;93783.72;;;19.44
45034;BMP280;30771;47.988;-4.186;2023-10-19T14:26:50;93762.31;;;19.47
45034;BMP280;30771;47.988;-4.186;2023-10-19T14:29:17;93731.72;;;19.52
45034;BMP280;30771;47.988;-4.186;2023-10-19T14:31:43;93759.69;;;19.72
45034;BMP280;30771;47.988;-4.186;2023-10-19T14:34:10;93761.94;;;19.86
45034;BMP280;30771;47.988;-4.186;2023-10-19T14:36:37;93771.97;;;19.95
45034;BMP280;30771;47.988;-4.186;2023-10-19T14:39:04;93810.56;;;20.16
45034;BMP280;30771;47.988;-4.186;2023-10-19T14:41:31;93839.81;;;20.07
45034;BMP280;30771;47.988;-4.186;2023-10-19T14:44:00;93837.56;;;19.92
45034;BMP280;30771;47.988;-4.186;2023-10-19T14:46:26;93803.22;;;19.82
45034;BMP280;30771;47.988;-4.186;2023-10-19T14:48:53;93811.84;;;19.86
45034;BMP280;30771;47.988;-4.186;2023-10-19T14:51:20;93851.44;;;20.00
45034;BMP280;30771;47.988;-4.186;2023-10-19T14:53:47;93859.09;;;19.98
45034;BMP280;30771;47.988;-4.186;2023-10-19T15:30:28;93696.84;;;19.34
45034;BMP280;30771;47.988;-4.186;2023-10-19T15:47:19;93598.03;;;19.03
45034;BMP280;30771;47.988;-4.186;2023-10-19T16:08:36;93543.13;;;18.56
45034;BMP280;30771;47.988;-4.186;2023-10-19T16:11:37;93583.44;;;18.54
45034;BMP280;30771;47.988;-4.186;2023-10-19T16:14:04;93547.06;;;18.22
45034;BMP280;30771;47.988;-4.186;2023-10-19T16:17:04;93539.50;;;18.21
45034;BMP280;30771;47.988;-4.186;2023-10-19T16:19:35;93542.63;;;18.32
45034;BMP280;30771;47.988;-4.186;2023-10-19T16:22:05;93536.81;;;18.37
45034;BMP280;30771;47.988;-4.186;2023-10-19T16:24:32;93551.28;;;18.49
45034;BMP280;30771;47.988;-4.186;2023-10-19T16:27:00;93546.06;;;18.33
45034;BMP280;30771;47.988;-4.186;2023-10-19T16:29:30;93550.03;;;18.24
45034;BMP280;30771;47.988;-4.186;2023-10-19T16:32:00;93562.38;;;18.18
45034;BMP280;30771;47.988;-4.186;2023-10-19T16:34:30;93554.25;;;18.09
45034;BMP280;30771;47.988;-4.186;2023-10-19T16:36:58;93545.16;;;17.94
45034;BMP280;30771;47.988;-4.186;2023-10-19T16:39:27;93576.94;;;18.14
45034;BMP280;30771;47.988;-4.186;2023-10-19T16:41:55;93557.06;;;18.02
45034;BMP280;30771;47.988;-4.186;2023-10-19T16:44:29;93557.94;;;17.99
45034;BMP280;30771;47.988;-4.186;2023-10-19T16:46:57;93547.56;;;17.89
45034;BMP280;30771;47.988;-4.186;2023-10-19T17:16:48;93512.53;;;17.14
45034;BMP280;30771;47.988;-4.186;2023-10-19T17:19:39;93515.16;;;16.98
45034;BMP280;30771;47.988;-4.186;2023-10-19T17:22:08;93544.63;;;17.03
45034;BMP280;30771;47.988;-4.186;2023-10-19T17:53:56;93487.00;;;16.29
45034;BMP280;30771;47.988;-4.186;2023-10-19T17:57:07;93515.56;;;16.41
45034;BMP280;30771;47.988;-4.186;2023-10-19T18:03:26;93519.78;;;16.38
45034;BMP280;30771;47.988;-4.186;2023-10-19T18:06:31;93529.31;;;16.36
45034;BMP280;30771;47.988;-4.186;2023-10-19T18:09:20;93529.72;;;16.34
45034;BMP280;30771;47.988;-4.186;2023-10-19T18:12:14;93541.13;;;16.31
45034;BMP280;30771;47.988;-4.186;2023-10-19T18:15:22;93525.66;;;16.30
45034;BMP280;30771;47.988;-4.186;2023-10-19T18:18:23;93538.19;;;16.26
45034;BMP280;30771;47.988;-4.186;2023-10-19T18:21:41;93532.72;;;16.17
45034;BMP280;30771;47.988;-4.186;2023-10-19T18:27:37;93532.94;;;16.03
45034;BMP280;30771;47.988;-4.186;2023-10-19T18:30:42;93557.19;;;16.01
45034;BMP280;30771;47.988;-4.186;2023-10-19T18:37:05;93589.06;;;15.98
45034;BMP280;30771;47.988;-4.186;2023-10-19T18:47:15;93601.09;;;15.79
45034;BMP280;30771;47.988;-4.186;2023-10-19T19:43:39;93469.94;;;15.25
45034;BMP280;30771;47.988;-4.186;2023-10-19T20:17:54;93218.06;;;15.30
45034;BMP280;30771;47.988;-4.186;2023-10-19T20:20:26;93289.06;;;15.31
45034;BMP280;30771;47.988;-4.186;2023-10-19T20:23:21;93284.28;;;15.03
45034;BMP280;30771;47.988;-4.186;2023-10-19T20:25:59;93365.03;;;15.34
45034;BMP280;30771;47.988;-4.186;2023-10-19T20:28:32;93368.53;;;15.28
45034;BMP280;30771;47.988;-4.186;2023-10-19T20:31:09;93390.56;;;15.21
45034;BMP280;30771;47.988;-4.186;2023-10-19T20:37:34;93444.03;;;15.36
45034;BMP280;30771;47.988;-4.186;2023-10-19T20:43:26;93453.31;;;15.24
45034;BMP280;30771;47.988;-4.186;2023-10-19T20:46:44;93488.63;;;15.37
45034;BMP280;30771;47.988;-4.186;2023-10-19T20:52:43;93496.13;;;15.42
45034;BMP280;30771;47.988;-4.186;2023-10-19T20:55:43;93505.84;;;15.49
45034;BMP280;30771;47.988;-4.186;2023-10-19T21:33:52;93267.59;;;15.06
45034;BMP280;30771;47.988;-4.186;2023-10-19T21:36:18;93337.94;;;15.27
45034;BMP280;30771;47.988;-4.186;2023-10-19T21:38:45;93330.28;;;15.09
45034;BMP280;30771;47.988;-4.186;2023-10-19T22:15:54;93362.47;;;15.08
45034;BMP280;30771;47.988;-4.186;2023-10-19T23:57:46;93538.28;;;14.39
